createdAt,value
2018-01-31T01:52:20.422Z,1015.67
2018-01-31T01:52:23.194Z,1011.74
2018-01-31T01:53:23.186Z,1011.76
2018-01-31T01:54:23.179Z,1011.72
2018-01-31T01:55:23.169Z,1011.76
2018-01-31T01:56:23.160Z,1011.66
2018-01-31T01:57:23.151Z,1011.66
2018-01-31T01:58:23.142Z,1011.64
2018-01-31T01:59:23.138Z,1011.62
2018-01-31T02:00:23.122Z,1011.63
2018-01-31T02:01:23.114Z,1011.60
2018-01-31T02:02:23.105Z,1011.57
2018-01-31T02:03:23.097Z,1011.56
2018-01-31T02:04:23.089Z,1011.49
2018-01-31T02:05:23.080Z,1011.40
2018-01-31T02:06:23.072Z,1011.37
2018-01-31T02:07:23.064Z,1011.35
2018-01-31T02:08:23.059Z,1011.35
2018-01-31T02:09:23.049Z,1011.27
2018-01-31T02:10:23.045Z,1011.27
2018-01-31T02:11:23.034Z,1011.28
2018-01-31T02:12:23.026Z,1011.23
2018-01-31T02:13:23.015Z,1011.12
2018-01-31T02:14:23.007Z,1011.07
2018-01-31T02:15:23.000Z,1011.04
2018-01-31T02:16:22.986Z,1011.03
2018-01-31T02:17:22.977Z,1010.96
2018-01-31T02:18:22.971Z,1010.97
2018-01-31T02:19:22.962Z,1010.91
2018-01-31T02:20:22.958Z,1010.92
2018-01-31T02:21:22.947Z,1010.87
2018-01-31T02:22:22.946Z,1010.84
2018-01-31T02:23:22.931Z,1010.85
2018-01-31T02:24:22.918Z,1010.84
2018-01-31T02:25:22.910Z,1010.82
2018-01-31T02:26:22.900Z,1010.77
2018-01-31T02:27:22.891Z,1010.76
2018-01-31T02:28:22.883Z,1010.72
2018-01-31T02:29:22.875Z,1010.65
2018-01-31T02:30:22.870Z,1010.65
2018-01-31T02:31:22.858Z,1010.58
2018-01-31T02:32:22.854Z,1010.68
2018-01-31T02:33:22.847Z,1010.56
2018-01-31T02:34:22.837Z,1010.51
2018-01-31T02:35:22.829Z,1010.52
2018-01-31T02:36:22.819Z,1010.50
2018-01-31T02:37:22.815Z,1010.45
2018-01-31T02:38:22.803Z,1010.48
2018-01-31T02:39:22.793Z,1010.41
2018-01-31T02:40:22.780Z,1010.42
2018-01-31T02:41:22.770Z,1010.47
2018-01-31T02:42:22.763Z,1010.41
2018-01-31T02:43:22.754Z,1010.40
2018-01-31T02:44:22.747Z,1010.38
2018-01-31T02:45:22.737Z,1010.43
2018-01-31T02:46:22.731Z,1010.28
2018-01-31T02:47:22.720Z,1010.26
2018-01-31T02:48:22.716Z,1010.29
2018-01-31T02:49:22.707Z,1010.23
2018-01-31T02:50:22.699Z,1010.21
2018-01-31T02:51:22.690Z,1010.14
2018-01-31T02:52:22.682Z,1010.14
2018-01-31T02:53:22.673Z,1010.13
2018-01-31T02:54:22.663Z,1010.20
2018-01-31T02:55:22.656Z,1010.16
2018-01-31T02:56:22.643Z,1010.10
2018-01-31T02:57:22.633Z,1010.09
2018-01-31T02:58:22.626Z,1010.03
2018-01-31T02:59:22.616Z,1010.01
2018-01-31T03:00:22.609Z,1010.05
2018-01-31T03:01:22.600Z,1010.01
2018-01-31T03:02:22.594Z,1010.01
2018-01-31T03:03:22.583Z,1009.96
2018-01-31T03:04:22.579Z,1009.94
2018-01-31T03:05:22.569Z,1009.92
2018-01-31T03:06:22.561Z,1009.86
2018-01-31T03:07:22.552Z,1009.82
2018-01-31T03:08:22.548Z,1009.86
2018-01-31T03:09:22.534Z,1009.81
2018-01-31T03:10:22.527Z,1009.82
2018-01-31T03:11:22.520Z,1009.78
2018-01-31T03:12:22.506Z,1009.77
2018-01-31T03:13:22.497Z,1009.74
2018-01-31T03:14:22.488Z,1009.73
2018-01-31T03:15:22.480Z,1009.70
2018-01-31T03:16:22.471Z,1009.64
2018-01-31T03:17:22.467Z,1009.69
2018-01-31T03:18:22.453Z,1009.63
2018-01-31T03:19:22.446Z,1009.61
2018-01-31T03:20:22.440Z,1009.58
2018-01-31T03:21:22.432Z,1009.60
2018-01-31T03:22:22.422Z,1009.52
2018-01-31T03:23:22.415Z,1009.46
2018-01-31T03:24:22.406Z,1009.48
2018-01-31T03:25:22.397Z,1009.42
2018-01-31T03:26:22.388Z,1009.42
2018-01-31T03:27:22.379Z,1009.47
2018-01-31T03:28:22.367Z,1009.35
2018-01-31T03:29:22.357Z,1009.33
2018-01-31T03:30:22.351Z,1009.28
2018-01-31T03:31:22.342Z,1009.33
2018-01-31T03:32:22.332Z,1009.29
2018-01-31T03:33:22.323Z,1009.26
2018-01-31T03:34:22.316Z,1009.23
2018-01-31T03:35:22.309Z,1009.18
2018-01-31T03:36:22.303Z,1009.17
2018-01-31T03:37:22.293Z,1009.13
2018-01-31T03:38:22.285Z,1009.12
2018-01-31T03:39:22.277Z,1009.09
2018-01-31T03:40:22.272Z,1009.10
2018-01-31T03:41:22.258Z,1009.08
2018-01-31T03:42:22.251Z,1009.09
2018-01-31T03:43:22.241Z,1009.02
2018-01-31T03:44:22.230Z,1008.97
2018-01-31T03:45:22.220Z,1008.99
2018-01-31T03:46:22.211Z,1008.89
2018-01-31T03:47:22.203Z,1008.94
2018-01-31T03:48:22.195Z,1008.83
2018-01-31T03:49:22.185Z,1008.78
2018-01-31T03:50:22.177Z,1008.81
2018-01-31T03:51:22.168Z,1008.76
2018-01-31T03:52:22.166Z,1008.81
2018-01-31T03:53:22.156Z,1008.72
2018-01-31T03:54:22.148Z,1008.69
2018-01-31T03:55:22.139Z,1008.64
2018-01-31T03:56:22.131Z,1008.78
2018-01-31T03:57:22.123Z,1008.69
2018-01-31T03:58:22.114Z,1008.70
2018-01-31T03:59:22.106Z,1008.67
2018-01-31T04:00:22.092Z,1008.65
2018-01-31T04:01:22.084Z,1008.65
2018-01-31T04:02:22.075Z,1008.59
2018-01-31T04:03:22.068Z,1008.63
2018-01-31T04:04:22.059Z,1008.61
2018-01-31T04:05:22.051Z,1008.59
2018-01-31T04:06:22.041Z,1008.58
2018-01-31T04:07:22.034Z,1008.53
2018-01-31T04:08:22.030Z,1008.57
2018-01-31T04:09:22.020Z,1008.57
2018-01-31T04:10:22.012Z,1008.52
2018-01-31T04:11:22.004Z,1008.43
2018-01-31T04:12:21.997Z,1008.46
2018-01-31T04:13:21.987Z,1008.43
2018-01-31T04:14:21.980Z,1008.43
2018-01-31T04:15:21.971Z,1008.37
2018-01-31T04:16:21.959Z,1008.39
2018-01-31T04:17:21.951Z,1008.36
2018-01-31T04:18:21.942Z,1008.31
2018-01-31T04:19:21.934Z,1008.34
2018-01-31T04:20:21.927Z,1008.33
2018-01-31T04:21:21.918Z,1008.24
2018-01-31T04:22:21.908Z,1008.28
2018-01-31T04:23:21.902Z,1008.21
2018-01-31T04:24:21.898Z,1008.20
2018-01-31T04:25:21.888Z,1008.21
2018-01-31T04:26:21.882Z,1008.17
2018-01-31T04:27:21.873Z,1008.16
2018-01-31T04:28:21.862Z,1008.15
2018-01-31T04:29:21.853Z,1008.14
2018-01-31T04:30:21.846Z,1008.13
2018-01-31T04:31:21.837Z,1008.18
2018-01-31T04:32:21.835Z,1008.15
2018-01-31T04:33:21.826Z,1008.16
2018-01-31T04:34:21.818Z,1008.13
2018-01-31T04:35:21.810Z,1008.11
2018-01-31T04:36:21.804Z,1008.08
2018-01-31T04:37:21.796Z,1008.05
2018-01-31T04:38:21.788Z,1008.03
2018-01-31T04:39:21.780Z,1008.01
2018-01-31T04:40:21.769Z,1008.00
2018-01-31T04:41:21.760Z,1008.01
2018-01-31T04:42:21.753Z,1007.97
2018-01-31T04:43:21.746Z,1007.97
2018-01-31T04:44:21.739Z,1007.87
2018-01-31T04:45:21.729Z,1007.94
2018-01-31T04:46:21.723Z,1007.95
2018-01-31T04:47:21.715Z,1007.83
2018-01-31T04:48:21.713Z,1007.85
2018-01-31T04:49:21.705Z,1007.82
2018-01-31T04:50:21.697Z,1007.84
2018-01-31T04:51:21.690Z,1007.73
2018-01-31T04:52:21.683Z,1007.77
2018-01-31T04:53:21.674Z,1007.79
2018-01-31T04:54:21.668Z,1007.77
2018-01-31T04:55:21.661Z,1007.76
2018-01-31T04:56:21.649Z,1007.80
2018-01-31T04:57:21.641Z,1007.75
2018-01-31T04:58:21.633Z,1007.74
2018-01-31T04:59:21.627Z,1007.69
2018-01-31T05:00:21.620Z,1007.74
2018-01-31T05:01:21.613Z,1007.62
2018-01-31T05:02:21.605Z,1007.63
2018-01-31T05:03:21.598Z,1007.62
2018-01-31T05:04:21.596Z,1007.67
2018-01-31T05:05:21.587Z,1007.64
2018-01-31T05:06:21.581Z,1007.68
2018-01-31T05:07:21.575Z,1007.66
2018-01-31T05:08:21.566Z,1007.56
2018-01-31T05:09:21.558Z,1007.55
2018-01-31T05:10:21.552Z,1007.49
2018-01-31T05:11:21.544Z,1007.64
2018-01-31T05:12:21.533Z,1007.49
2018-01-31T05:13:21.525Z,1007.46
2018-01-31T05:14:21.518Z,1007.58
2018-01-31T05:15:21.513Z,1007.47
2018-01-31T05:16:21.505Z,1007.43
2018-01-31T05:17:21.496Z,1007.54
2018-01-31T05:18:21.490Z,1007.47
2018-01-31T05:19:21.483Z,1007.50
2018-01-31T05:20:21.479Z,1007.47
2018-01-31T05:21:21.471Z,1007.44
2018-01-31T05:22:21.463Z,1007.49
2018-01-31T05:23:21.458Z,1007.38
2018-01-31T05:24:21.451Z,1007.43
2018-01-31T05:25:21.443Z,1007.39
2018-01-31T05:26:21.436Z,1007.37
2018-01-31T05:27:21.429Z,1007.42
2018-01-31T05:28:21.418Z,1007.44
2018-01-31T05:29:21.410Z,1007.47
2018-01-31T05:30:21.404Z,1007.41
2018-01-31T05:31:21.396Z,1007.40
2018-01-31T05:32:21.394Z,1007.38
2018-01-31T05:33:21.386Z,1007.39
2018-01-31T05:34:21.379Z,1007.30
2018-01-31T05:35:21.371Z,1007.38
2018-01-31T05:36:21.360Z,1007.28
2018-01-31T05:37:21.354Z,1007.30
2018-01-31T05:38:21.346Z,1007.29
2018-01-31T05:39:21.338Z,1007.25
2018-01-31T05:40:21.332Z,1007.28
2018-01-31T05:41:21.325Z,1007.29
2018-01-31T05:42:21.318Z,1007.26
2018-01-31T05:43:21.311Z,1007.24
2018-01-31T05:44:21.307Z,1007.26
2018-01-31T05:45:21.300Z,1007.20
2018-01-31T05:46:21.292Z,1007.17
2018-01-31T05:47:21.288Z,1007.20
2018-01-31T05:48:21.279Z,1007.27
2018-01-31T05:49:21.272Z,1007.22
2018-01-31T05:50:21.269Z,1007.16
2018-01-31T05:51:21.257Z,1007.24
2018-01-31T05:52:21.284Z,1007.17
2018-01-31T05:53:21.239Z,1007.07
2018-01-31T05:54:21.232Z,1007.09
2018-01-31T05:55:21.225Z,1007.04
2018-01-31T05:56:21.218Z,1007.12
2018-01-31T05:57:21.210Z,1007.10
2018-01-31T05:58:21.204Z,1007.17
2018-01-31T05:59:21.196Z,1007.06
2018-01-31T06:00:21.195Z,1007.02
2018-01-31T06:01:21.186Z,1007.10
2018-01-31T06:02:21.179Z,1007.13
2018-01-31T06:03:21.218Z,1007.05
2018-01-31T06:04:21.167Z,1007.11
2018-01-31T06:05:21.158Z,1007.10
2018-01-31T06:06:21.152Z,1007.06
2018-01-31T06:07:21.147Z,1007.10
2018-01-31T06:08:21.134Z,1007.07
2018-01-31T06:09:21.125Z,1007.07
2018-01-31T06:10:21.119Z,1007.11
2018-01-31T06:11:21.113Z,1007.15
2018-01-31T06:12:21.105Z,1007.06
2018-01-31T06:13:21.097Z,1007.01
2018-01-31T06:14:21.092Z,1007.10
2018-01-31T06:15:21.083Z,1007.08
2018-01-31T06:16:21.081Z,1007.08
2018-01-31T06:17:21.073Z,1007.07
2018-01-31T06:18:21.067Z,1006.99
2018-01-31T06:19:21.060Z,1006.95
2018-01-31T06:20:21.053Z,1006.99
2018-01-31T06:21:21.046Z,1006.96
2018-01-31T06:22:21.039Z,1006.88
2018-01-31T06:23:21.035Z,1006.95
2018-01-31T06:24:21.021Z,1006.91
2018-01-31T06:25:21.014Z,1006.93
2018-01-31T06:26:21.007Z,1006.91
2018-01-31T06:27:21.000Z,1006.81
2018-01-31T06:28:20.994Z,1006.86
2018-01-31T06:29:20.986Z,1006.81
2018-01-31T06:30:20.980Z,1006.80
2018-01-31T06:31:20.971Z,1006.76
2018-01-31T06:32:20.969Z,1006.78
2018-01-31T06:33:20.962Z,1006.84
2018-01-31T06:34:20.956Z,1006.69
2018-01-31T06:35:20.949Z,1006.69
2018-01-31T06:36:20.936Z,1006.61
2018-01-31T06:37:20.928Z,1006.64
2018-01-31T06:38:20.922Z,1006.54
2018-01-31T06:39:20.916Z,1006.57
2018-01-31T06:40:20.913Z,1006.52
2018-01-31T06:41:20.905Z,1006.52
2018-01-31T06:42:20.899Z,1006.59
2018-01-31T06:43:20.892Z,1006.50
2018-01-31T06:44:20.885Z,1006.46
2018-01-31T06:45:20.878Z,1006.31
2018-01-31T06:46:20.871Z,1006.44
2018-01-31T06:47:20.864Z,1006.37
2018-01-31T06:48:20.852Z,1006.36
2018-01-31T06:49:20.873Z,1006.29
2018-01-31T06:50:20.837Z,1006.32
2018-01-31T06:51:20.832Z,1006.27
2018-01-31T06:52:20.824Z,1006.30
2018-01-31T06:53:20.817Z,1006.33
2018-01-31T06:54:20.809Z,1006.21
2018-01-31T06:55:20.803Z,1006.27
2018-01-31T06:56:20.800Z,1006.23
2018-01-31T06:57:20.793Z,1006.17
2018-01-31T06:58:20.786Z,1006.16
2018-01-31T06:59:20.782Z,1006.11
2018-01-31T07:00:20.773Z,1006.14
2018-01-31T07:01:20.766Z,1006.07
2018-01-31T07:02:20.758Z,1006.05
2018-01-31T07:03:20.750Z,1006.16
2018-01-31T07:04:20.740Z,1006.09
2018-01-31T07:05:20.731Z,1006.04
2018-01-31T07:06:20.726Z,1006.01
2018-01-31T07:07:20.718Z,1005.97
2018-01-31T07:08:20.711Z,1006.01
2018-01-31T07:09:20.703Z,1006.03
2018-01-31T07:10:20.697Z,1005.95
2018-01-31T07:11:20.690Z,1005.95
2018-01-31T07:12:20.686Z,1005.90
2018-01-31T07:13:20.679Z,1005.86
2018-01-31T07:14:20.673Z,1005.87
2018-01-31T07:15:20.665Z,1005.82
2018-01-31T07:16:20.658Z,1005.92
2018-01-31T07:17:20.652Z,1005.81
2018-01-31T07:18:20.643Z,1005.75
2018-01-31T07:19:20.637Z,1005.76
2018-01-31T07:20:20.625Z,1005.70
2018-01-31T07:21:20.618Z,1005.61
2018-01-31T07:22:20.611Z,1005.71
2018-01-31T07:23:20.609Z,1005.81
2018-01-31T07:24:20.598Z,1005.74
2018-01-31T07:25:20.589Z,1005.72
2018-01-31T07:26:20.583Z,1005.68
2018-01-31T07:27:20.576Z,1005.72
2018-01-31T07:28:20.572Z,1005.71
2018-01-31T07:29:20.564Z,1005.72
2018-01-31T07:30:20.558Z,1005.63
2018-01-31T07:31:20.554Z,1005.72
2018-01-31T07:32:20.544Z,1005.75
2018-01-31T07:33:20.536Z,1005.68
2018-01-31T07:34:20.529Z,1005.60
2018-01-31T07:35:20.522Z,1005.61
2018-01-31T07:36:20.510Z,1005.62
2018-01-31T07:37:20.503Z,1005.59
2018-01-31T07:38:20.496Z,1005.67
2018-01-31T07:39:20.490Z,1005.67
2018-01-31T07:40:20.486Z,1005.65
2018-01-31T07:41:20.481Z,1005.61
2018-01-31T07:42:20.472Z,1005.49
2018-01-31T07:43:20.466Z,1005.50
2018-01-31T07:44:20.452Z,1005.52
2018-01-31T07:45:20.446Z,1005.45
2018-01-31T07:46:20.439Z,1005.46
2018-01-31T07:47:20.431Z,1005.47
2018-01-31T07:48:20.426Z,1005.44
2018-01-31T07:49:20.418Z,1005.36
2018-01-31T07:50:20.410Z,1005.35
2018-01-31T07:51:20.403Z,1005.28
2018-01-31T07:52:20.401Z,1005.28
2018-01-31T07:53:20.393Z,1005.26
2018-01-31T07:54:20.386Z,1005.18
2018-01-31T07:55:20.380Z,1005.22
2018-01-31T07:56:20.373Z,1005.23
2018-01-31T07:57:20.365Z,1005.10
2018-01-31T07:58:20.357Z,1005.16
2018-01-31T07:59:20.354Z,1005.13
2018-01-31T08:00:20.340Z,1005.04
2018-01-31T08:01:20.332Z,1005.07
2018-01-31T08:02:20.326Z,1005.04
2018-01-31T08:03:20.318Z,1004.99
2018-01-31T08:04:20.311Z,1004.95
2018-01-31T08:05:20.303Z,1004.90
2018-01-31T08:06:20.296Z,1005.01
2018-01-31T08:07:20.291Z,1005.00
2018-01-31T08:08:20.287Z,1004.94
2018-01-31T08:09:20.280Z,1004.91
2018-01-31T08:10:20.273Z,1004.93
2018-01-31T08:11:20.267Z,1004.99
2018-01-31T08:12:20.260Z,1004.92
2018-01-31T08:13:20.252Z,1004.82
2018-01-31T08:14:20.245Z,1004.92
2018-01-31T08:15:20.237Z,1004.96
2018-01-31T08:16:20.228Z,1004.87
2018-01-31T08:17:20.220Z,1004.94
2018-01-31T08:18:20.213Z,1004.98
2018-01-31T08:19:20.207Z,1004.80
2018-01-31T08:20:20.200Z,1004.71
2018-01-31T08:21:20.192Z,1004.74
2018-01-31T08:22:20.184Z,1004.79
2018-01-31T08:23:20.178Z,1004.75
2018-01-31T08:24:20.175Z,1004.70
2018-01-31T08:25:20.168Z,1004.66
2018-01-31T08:26:20.190Z,1004.62
2018-01-31T08:27:20.155Z,1004.62
2018-01-31T08:28:20.148Z,1004.65
2018-01-31T08:29:20.139Z,1004.64
2018-01-31T08:30:20.136Z,1004.60
2018-01-31T08:31:20.126Z,1004.56
2018-01-31T08:32:20.117Z,1004.62
2018-01-31T08:33:20.110Z,1004.58
2018-01-31T08:34:20.104Z,1004.53
2018-01-31T08:35:20.096Z,1004.50
2018-01-31T08:36:20.090Z,1004.50
2018-01-31T08:37:20.082Z,1004.49
2018-01-31T08:38:20.074Z,1004.51
2018-01-31T08:39:20.078Z,1004.50
2018-01-31T08:40:20.068Z,1004.54
2018-01-31T08:41:20.059Z,1004.60
2018-01-31T08:42:20.051Z,1004.44
2018-01-31T08:43:20.046Z,1004.51
2018-01-31T08:44:20.088Z,1004.40
2018-01-31T08:45:20.027Z,1004.41
2018-01-31T08:46:20.020Z,1004.39
2018-01-31T08:47:20.014Z,1004.40
2018-01-31T08:48:20.012Z,1004.30
2018-01-31T08:49:20.005Z,1004.36
2018-01-31T08:50:19.996Z,1004.26
2018-01-31T08:51:19.989Z,1004.42
2018-01-31T08:52:19.983Z,1004.23
2018-01-31T08:53:19.976Z,1004.25
2018-01-31T08:54:19.969Z,1004.25
2018-01-31T08:55:19.963Z,1004.27
2018-01-31T08:56:19.953Z,1004.27
2018-01-31T08:57:19.947Z,1004.12
2018-01-31T08:58:19.938Z,1004.18
2018-01-31T08:59:19.932Z,1004.19
2018-01-31T09:00:19.926Z,1004.20
2018-01-31T09:01:19.920Z,1004.17
2018-01-31T09:02:19.913Z,1004.26
2018-01-31T09:03:19.905Z,1004.34
2018-01-31T09:04:19.904Z,1004.17
2018-01-31T09:05:19.896Z,1004.20
2018-01-31T09:06:19.890Z,1004.12
2018-01-31T09:07:19.919Z,1004.16
2018-01-31T09:08:19.877Z,1004.15
2018-01-31T09:09:19.871Z,1004.22
2018-01-31T09:10:19.863Z,1004.08
2018-01-31T09:11:19.856Z,1004.08
2018-01-31T09:12:19.845Z,1004.16
2018-01-31T09:13:19.838Z,1004.02
2018-01-31T09:14:19.833Z,1004.05
2018-01-31T09:15:19.826Z,1003.98
2018-01-31T09:16:19.822Z,1003.92
2018-01-31T09:17:19.813Z,1003.86
2018-01-31T09:18:19.806Z,1003.84
2018-01-31T09:19:19.799Z,1003.83
2018-01-31T09:20:19.796Z,1003.78
2018-01-31T09:21:19.791Z,1003.85
2018-01-31T09:22:19.784Z,1003.79
2018-01-31T09:23:19.778Z,1003.88
2018-01-31T09:24:19.772Z,1003.84
2018-01-31T09:25:19.764Z,1003.74
2018-01-31T09:26:19.758Z,1003.82
2018-01-31T09:27:19.751Z,1003.67
2018-01-31T09:28:19.739Z,1003.73
2018-01-31T09:29:19.733Z,1003.70
2018-01-31T09:30:19.727Z,1003.71
2018-01-31T09:31:19.720Z,1003.79
2018-01-31T09:32:19.715Z,1003.80
2018-01-31T09:33:19.707Z,1003.73
2018-01-31T09:34:19.702Z,1003.90
2018-01-31T09:35:19.693Z,1003.82
2018-01-31T09:36:19.693Z,1003.84
2018-01-31T09:37:19.723Z,1003.82
2018-01-31T09:38:19.682Z,1003.85
2018-01-31T09:39:19.672Z,1003.82
2018-01-31T09:40:19.666Z,1003.86
2018-01-31T09:41:19.657Z,1003.63
2018-01-31T09:42:19.653Z,1003.72
2018-01-31T09:43:19.647Z,1003.86
2018-01-31T09:44:19.635Z,1003.76
2018-01-31T09:45:19.628Z,1003.78
2018-01-31T09:46:19.623Z,1003.80
2018-01-31T09:47:19.615Z,1003.69
2018-01-31T09:48:19.612Z,1003.67
2018-01-31T09:49:19.619Z,1003.60
2018-01-31T09:50:19.601Z,1003.63
2018-01-31T09:51:19.593Z,1003.63
2018-01-31T09:52:19.582Z,1003.60
2018-01-31T09:53:19.574Z,1003.55
2018-01-31T09:54:19.567Z,1003.53
2018-01-31T09:55:19.561Z,1003.52
2018-01-31T09:56:19.556Z,1003.52
2018-01-31T09:57:19.548Z,1003.57
2018-01-31T09:58:19.577Z,1003.47
2018-01-31T09:59:19.536Z,1003.45
2018-01-31T10:00:19.533Z,1003.38
2018-01-31T10:01:19.525Z,1003.36
2018-01-31T10:02:19.519Z,1003.30
2018-01-31T10:03:19.513Z,1003.34
2018-01-31T10:04:19.507Z,1003.28
2018-01-31T10:05:19.500Z,1003.36
2018-01-31T10:06:19.492Z,1003.34
2018-01-31T10:07:19.487Z,1003.23
2018-01-31T10:08:19.476Z,1003.25
2018-01-31T10:09:19.468Z,1003.32
2018-01-31T10:10:19.463Z,1003.32
2018-01-31T10:11:19.459Z,1003.19
2018-01-31T10:12:19.451Z,1003.08
2018-01-31T10:13:19.444Z,1003.16
2018-01-31T10:14:19.438Z,1003.13
2018-01-31T10:15:19.431Z,1003.18
2018-01-31T10:16:19.431Z,1003.13
2018-01-31T10:17:19.423Z,1003.07
2018-01-31T10:18:19.416Z,1003.03
2018-01-31T10:19:19.410Z,1002.98
2018-01-31T10:20:19.409Z,1003.02
2018-01-31T10:21:19.397Z,1003.00
2018-01-31T10:22:19.392Z,1002.95
2018-01-31T10:23:19.386Z,1002.88
2018-01-31T10:24:19.380Z,1002.95
2018-01-31T10:25:19.367Z,1002.93
2018-01-31T10:26:19.362Z,1002.92
2018-01-31T10:27:19.356Z,1002.90
2018-01-31T10:28:19.351Z,1002.94
2018-01-31T10:29:19.345Z,1002.97
2018-01-31T10:30:19.337Z,1002.92
2018-01-31T10:31:19.330Z,1002.89
2018-01-31T10:32:19.329Z,1002.89
2018-01-31T10:33:19.323Z,1002.87
2018-01-31T10:34:19.317Z,1002.72
2018-01-31T10:35:19.310Z,1002.88
2018-01-31T10:36:19.306Z,1002.81
2018-01-31T10:37:19.298Z,1002.74
2018-01-31T10:38:19.293Z,1002.77
2018-01-31T10:39:19.286Z,1002.77
2018-01-31T10:40:19.276Z,1002.70
2018-01-31T10:41:19.270Z,1002.72
2018-01-31T10:42:19.264Z,1002.68
2018-01-31T10:43:19.259Z,1002.62
2018-01-31T10:44:19.253Z,1002.60
2018-01-31T10:45:19.247Z,1002.56
2018-01-31T10:46:19.240Z,1002.61
2018-01-31T10:47:19.234Z,1002.50
2018-01-31T10:48:19.234Z,1002.55
2018-01-31T10:49:19.225Z,1002.47
2018-01-31T10:50:19.221Z,1002.46
2018-01-31T10:51:19.214Z,1002.37
2018-01-31T10:52:19.205Z,1002.45
2018-01-31T10:53:19.199Z,1002.49
2018-01-31T10:57:28.820Z,1002.37
2018-01-31T10:58:19.172Z,1002.29
2018-01-31T10:59:19.165Z,1002.29
2018-01-31T11:00:19.160Z,1002.29
2018-01-31T11:01:19.192Z,1002.28
2018-01-31T11:02:19.146Z,1002.25
2018-01-31T11:03:19.142Z,1002.34
2018-01-31T11:04:19.130Z,1002.35
2018-01-31T11:05:19.123Z,1002.20
2018-01-31T11:06:19.117Z,1002.12
2018-01-31T11:07:19.110Z,1002.22
2018-01-31T11:08:19.104Z,1002.24
2018-01-31T11:09:19.097Z,1002.22
2018-01-31T11:10:19.091Z,1002.05
2018-01-31T11:11:19.084Z,1002.20
2018-01-31T11:12:19.083Z,1002.10
2018-01-31T11:13:19.075Z,1002.10
2018-01-31T11:14:19.103Z,1002.00
2018-01-31T11:15:19.062Z,1001.96
2018-01-31T11:16:19.056Z,1002.06
2018-01-31T11:17:19.049Z,1002.05
2018-01-31T11:18:19.042Z,1002.05
2018-01-31T11:19:19.035Z,1001.92
2018-01-31T11:20:19.025Z,1001.83
2018-01-31T11:21:19.017Z,1001.84
2018-01-31T11:22:19.012Z,1001.83
2018-01-31T11:23:19.004Z,1001.78
2018-01-31T11:24:18.997Z,1001.71
2018-01-31T11:25:18.990Z,1001.79
2018-01-31T11:26:18.983Z,1001.72
2018-01-31T11:27:18.977Z,1001.69
2018-01-31T11:28:18.974Z,1001.68
2018-01-31T11:29:18.967Z,1001.80
2018-01-31T11:30:18.961Z,1001.74
2018-01-31T11:31:18.957Z,1001.62
2018-01-31T11:32:18.946Z,1001.59
2018-01-31T11:33:18.938Z,1001.63
2018-01-31T11:34:18.933Z,1001.47
2018-01-31T11:35:18.926Z,1001.52
2018-01-31T11:36:18.915Z,1001.50
2018-01-31T11:37:18.907Z,1001.45
2018-01-31T11:38:18.901Z,1001.36
2018-01-31T11:39:18.894Z,1001.44
2018-01-31T11:40:18.888Z,1001.43
2018-01-31T11:41:18.880Z,1001.38
2018-01-31T11:42:18.872Z,1001.38
2018-01-31T11:43:18.867Z,1001.39
2018-01-31T11:44:18.864Z,1001.39
2018-01-31T11:45:18.856Z,1001.37
2018-01-31T11:46:18.849Z,1001.30
2018-01-31T11:47:18.843Z,1001.33
2018-01-31T11:48:18.835Z,1001.27
2018-01-31T11:49:18.829Z,1001.29
2018-01-31T11:50:18.822Z,1001.23
2018-01-31T11:51:18.820Z,1001.14
2018-01-31T11:52:18.806Z,1001.18
2018-01-31T11:53:18.797Z,1001.11
2018-01-31T11:54:18.789Z,1001.06
2018-01-31T11:55:18.784Z,1001.04
2018-01-31T11:56:18.777Z,1001.02
2018-01-31T11:57:18.769Z,1001.07
2018-01-31T11:58:18.761Z,1000.91
2018-01-31T11:59:18.755Z,1000.98
2018-01-31T12:00:18.753Z,1000.84
2018-01-31T12:01:18.744Z,1000.93
2018-01-31T12:02:18.739Z,1000.84
2018-01-31T12:03:18.732Z,1000.85
2018-01-31T12:04:18.725Z,1000.89
2018-01-31T12:05:18.716Z,1000.84
2018-01-31T12:06:18.711Z,1000.80
2018-01-31T12:07:18.704Z,1000.73
2018-01-31T12:08:18.694Z,1000.77
2018-01-31T12:09:18.685Z,1000.66
2018-01-31T12:10:18.680Z,1000.76
2018-01-31T12:11:18.673Z,1000.67
2018-01-31T12:12:18.667Z,1000.63
2018-01-31T12:13:18.659Z,1000.74
2018-01-31T12:14:18.653Z,1000.65
2018-01-31T12:15:18.645Z,1000.60
2018-01-31T12:16:18.680Z,1000.66
2018-01-31T12:17:18.635Z,1000.70
2018-01-31T12:18:18.628Z,1000.62
2018-01-31T12:19:18.623Z,1000.67
2018-01-31T12:20:18.617Z,1000.66
2018-01-31T12:21:18.609Z,1000.64
2018-01-31T12:22:18.603Z,1000.59
2018-01-31T12:23:18.595Z,1000.52
2018-01-31T12:24:18.585Z,1000.50
2018-01-31T12:25:18.577Z,1000.57
2018-01-31T12:26:18.571Z,1000.61
2018-01-31T12:27:18.564Z,1000.55
2018-01-31T12:28:18.559Z,1000.47
2018-01-31T12:29:18.551Z,1000.46
2018-01-31T12:30:18.544Z,1000.44
2018-01-31T12:31:18.537Z,1000.46
2018-01-31T12:32:18.534Z,1000.42
2018-01-31T12:33:18.526Z,1000.27
2018-01-31T12:34:18.522Z,1000.37
2018-01-31T12:35:18.515Z,1000.15
2018-01-31T12:36:18.508Z,1000.23
2018-01-31T12:37:18.501Z,1000.31
2018-01-31T12:38:18.494Z,1000.17
2018-01-31T12:39:18.487Z,1000.21
2018-01-31T12:40:18.476Z,1000.23
2018-01-31T12:41:18.469Z,1000.14
2018-01-31T12:42:18.465Z,1000.09
2018-01-31T12:43:18.457Z,1000.09
2018-01-31T12:44:18.449Z,1000.09
2018-01-31T12:45:18.444Z,1000.08
2018-01-31T12:46:18.434Z,1000.01
2018-01-31T12:47:18.428Z,999.99
2018-01-31T12:48:18.428Z,999.98
2018-01-31T12:49:18.420Z,999.96
2018-01-31T12:50:18.416Z,1000.01
2018-01-31T12:51:18.407Z,999.87
2018-01-31T12:52:18.398Z,999.95
2018-01-31T12:53:18.390Z,999.97
2018-01-31T12:54:18.383Z,1000.14
2018-01-31T12:55:18.377Z,1000.06
2018-01-31T12:56:18.366Z,999.94
2018-01-31T12:57:18.358Z,999.99
2018-01-31T12:58:18.351Z,1000.00
2018-01-31T12:59:18.345Z,1000.09
2018-01-31T13:00:18.342Z,1000.06
2018-01-31T13:01:18.334Z,1000.05
2018-01-31T13:02:18.328Z,1000.06
2018-01-31T13:03:18.321Z,1000.06
2018-01-31T13:04:18.310Z,1000.04
2018-01-31T13:05:18.302Z,999.97
2018-01-31T13:06:18.295Z,999.95
2018-01-31T13:07:18.289Z,999.94
2018-01-31T13:08:18.281Z,999.76
2018-01-31T13:09:18.273Z,999.82
2018-01-31T13:10:18.267Z,999.85
2018-01-31T13:11:18.260Z,999.88
2018-01-31T13:12:18.257Z,999.79
2018-01-31T13:13:18.249Z,999.85
2018-01-31T13:14:18.243Z,999.86
2018-01-31T13:15:18.236Z,999.67
2018-01-31T13:16:18.228Z,999.81
2018-01-31T13:17:18.221Z,999.67
2018-01-31T13:18:18.216Z,999.65
2018-01-31T13:19:18.207Z,999.72
2018-01-31T13:20:18.201Z,999.67
2018-01-31T13:21:18.189Z,999.60
2018-01-31T13:22:18.181Z,999.61
2018-01-31T13:23:18.174Z,999.65
2018-01-31T13:24:18.168Z,999.65
2018-01-31T13:25:18.159Z,999.56
2018-01-31T13:26:18.153Z,999.57
2018-01-31T13:27:18.146Z,999.67
2018-01-31T13:28:18.146Z,999.58
2018-01-31T13:29:18.137Z,999.56
2018-01-31T13:30:18.129Z,999.51
2018-01-31T13:31:18.122Z,999.45
2018-01-31T13:32:18.126Z,999.42
2018-01-31T13:33:18.107Z,999.42
2018-01-31T13:34:18.100Z,999.42
2018-01-31T13:35:18.092Z,999.29
2018-01-31T13:36:18.085Z,999.31
2018-01-31T13:37:18.074Z,999.23
2018-01-31T13:38:18.084Z,999.11
2018-01-31T13:39:18.062Z,999.12
2018-01-31T13:40:18.053Z,999.06
2018-01-31T13:41:18.043Z,999.07
2018-01-31T13:42:18.038Z,999.10
2018-01-31T13:43:18.031Z,999.04
2018-01-31T13:44:18.028Z,998.97
2018-01-31T13:45:18.021Z,998.97
2018-01-31T13:46:18.013Z,998.92
2018-01-31T13:47:18.007Z,998.90
2018-01-31T13:48:18.000Z,998.87
2018-01-31T13:49:17.991Z,998.84
2018-01-31T13:50:17.984Z,998.80
2018-01-31T13:51:17.977Z,998.84
2018-01-31T13:52:17.966Z,998.81
2018-01-31T13:53:17.957Z,998.77
2018-01-31T13:54:17.951Z,998.71
2018-01-31T13:55:17.944Z,998.80
2018-01-31T13:56:17.995Z,998.73
2018-01-31T13:57:17.929Z,998.74
2018-01-31T13:58:17.922Z,998.75
2018-01-31T13:59:17.915Z,998.78
2018-01-31T14:00:17.912Z,998.70
2018-01-31T14:01:17.905Z,998.65